sensor_id;sensor_type;location;lat;lon;timestamp;P1;durP1;ratioP1;P2;durP2;ratioP2
59856;SDS011;45733;52.668;6.860;2022-09-25T00:01:33;0.50;;;0.50;;
59856;SDS011;45733;52.668;6.860;2022-09-25T00:03:59;0.50;;;0.50;;
59856;SDS011;45733;52.668;6.860;2022-09-25T00:06:26;0.60;;;0.60;;
59856;SDS011;45733;52.668;6.860;2022-09-25T00:08:53;0.50;;;0.50;;
59856;SDS011;45733;52.668;6.860;2022-09-25T00:11:25;0.50;;;0.50;;
59856;SDS011;45733;52.668;6.860;2022-09-25T00:13:53;0.50;;;0.50;;
59856;SDS011;45733;52.668;6.860;2022-09-25T00:16:24;0.50;;;0.50;;
59856;SDS011;45733;52.668;6.860;2022-09-25T00:18:53;0.50;;;0.50;;
59856;SDS011;45733;52.668;6.860;2022-09-25T00:21:39;0.60;;;0.60;;
59856;SDS011;45733;52.668;6.860;2022-09-25T00:24:07;0.60;;;0.60;;
59856;SDS011;45733;52.668;6.860;2022-09-25T00:26:39;0.60;;;0.60;;
59856;SDS011;45733;52.668;6.860;2022-09-25T00:29:08;0.50;;;0.50;;
59856;SDS011;45733;52.668;6.860;2022-09-25T00:31:38;0.60;;;0.60;;
59856;SDS011;45733;52.668;6.860;2022-09-25T00:34:04;0.60;;;0.60;;
59856;SDS011;45733;52.668;6.860;2022-09-25T00:36:30;0.50;;;0.50;;
59856;SDS011;45733;52.668;6.860;2022-09-25T00:38:57;0.50;;;0.50;;
59856;SDS011;45733;52.668;6.860;2022-09-25T00:41:24;0.60;;;0.60;;
59856;SDS011;45733;52.668;6.860;2022-09-25T00:43:52;0.52;;;0.52;;
59856;SDS011;45733;52.668;6.860;2022-09-25T00:51:24;0.60;;;0.60;;
59856;SDS011;45733;52.668;6.860;2022-09-25T00:54:10;0.50;;;0.50;;
59856;SDS011;45733;52.668;6.860;2022-09-25T00:56:40;0.60;;;0.60;;
59856;SDS011;45733;52.668;6.860;2022-09-25T00:59:11;0.50;;;0.50;;
59856;SDS011;45733;52.668;6.860;2022-09-25T01:01:42;0.50;;;0.50;;
59856;SDS011;45733;52.668;6.860;2022-09-25T01:04:08;0.50;;;0.50;;
59856;SDS011;45733;52.668;6.860;2022-09-25T01:06:37;0.50;;;0.50;;
59856;SDS011;45733;52.668;6.860;2022-09-25T01:09:03;0.50;;;0.50;;
59856;SDS011;45733;52.668;6.860;2022-09-25T01:11:30;0.50;;;0.50;;
59856;SDS011;45733;52.668;6.860;2022-09-25T01:13:56;0.50;;;0.50;;
59856;SDS011;45733;52.668;6.860;2022-09-25T01:16:35;0.50;;;0.50;;
59856;SDS011;45733;52.668;6.860;2022-09-25T01:22:04;0.50;;;0.50;;
59856;SDS011;45733;52.668;6.860;2022-09-25T01:24:56;0.60;;;0.60;;
59856;SDS011;45733;52.668;6.860;2022-09-25T01:30:13;0.60;;;0.60;;
59856;SDS011;45733;52.668;6.860;2022-09-25T01:37:44;0.60;;;0.60;;
59856;SDS011;45733;52.668;6.860;2022-09-25T01:40:44;0.50;;;0.50;;
59856;SDS011;45733;52.668;6.860;2022-09-25T01:43:36;0.60;;;0.60;;
59856;SDS011;45733;52.668;6.860;2022-09-25T01:46:14;0.50;;;0.50;;
59856;SDS011;45733;52.668;6.860;2022-09-25T01:53:45;0.50;;;0.50;;
59856;SDS011;45733;52.668;6.860;2022-09-25T01:56:35;0.60;;;0.60;;
59856;SDS011;45733;52.668;6.860;2022-09-25T01:59:34;0.60;;;0.60;;
59856;SDS011;45733;52.668;6.860;2022-09-25T02:02:10;0.50;;;0.50;;
59856;SDS011;45733;52.668;6.860;2022-09-25T02:04:52;0.60;;;0.60;;
59856;SDS011;45733;52.668;6.860;2022-09-25T02:07:27;0.60;;;0.60;;
59856;SDS011;45733;52.668;6.860;2022-09-25T02:10:02;0.60;;;0.60;;
59856;SDS011;45733;52.668;6.860;2022-09-25T02:12:42;0.60;;;0.60;;
59856;SDS011;45733;52.668;6.860;2022-09-25T02:15:15;0.60;;;0.60;;
59856;SDS011;45733;52.668;6.860;2022-09-25T02:17:53;0.60;;;0.60;;
59856;SDS011;45733;52.668;6.860;2022-09-25T02:20:49;0.55;;;0.55;;
59856;SDS011;45733;52.668;6.860;2022-09-25T02:26:34;0.60;;;0.60;;
59856;SDS011;45733;52.668;6.860;2022-09-25T02:28:59;0.60;;;0.60;;
59856;SDS011;45733;52.668;6.860;2022-09-25T02:32:09;0.50;;;0.50;;
59856;SDS011;45733;52.668;6.860;2022-09-25T02:34:19;0.60;;;0.60;;
59856;SDS011;45733;52.668;6.860;2022-09-25T02:36:46;0.60;;;0.60;;
59856;SDS011;45733;52.668;6.860;2022-09-25T02:39:13;0.60;;;0.60;;
59856;SDS011;45733;52.668;6.860;2022-09-25T02:47:50;0.60;;;0.60;;
59856;SDS011;45733;52.668;6.860;2022-09-25T02:50:53;0.50;;;0.50;;
59856;SDS011;45733;52.668;6.860;2022-09-25T02:59:44;0.60;;;0.60;;
59856;SDS011;45733;52.668;6.860;2022-09-25T03:02:17;0.50;;;0.50;;
59856;SDS011;45733;52.668;6.860;2022-09-25T03:04:44;0.60;;;0.60;;
59856;SDS011;45733;52.668;6.860;2022-09-25T03:07:13;0.60;;;0.60;;
59856;SDS011;45733;52.668;6.860;2022-09-25T03:09:41;0.60;;;0.60;;
59856;SDS011;45733;52.668;6.860;2022-09-25T03:12:11;0.60;;;0.60;;
59856;SDS011;45733;52.668;6.860;2022-09-25T03:14:38;0.60;;;0.60;;
59856;SDS011;45733;52.668;6.860;2022-09-25T03:17:05;0.50;;;0.50;;
59856;SDS011;45733;52.668;6.860;2022-09-25T03:19:33;0.55;;;0.55;;
59856;SDS011;45733;52.668;6.860;2022-09-25T03:21:59;0.50;;;0.50;;
59856;SDS011;45733;52.668;6.860;2022-09-25T03:24:25;0.60;;;0.60;;
59856;SDS011;45733;52.668;6.860;2022-09-25T03:26:52;0.60;;;0.60;;
59856;SDS011;45733;52.668;6.860;2022-09-25T03:29:19;0.60;;;0.60;;
59856;SDS011;45733;52.668;6.860;2022-09-25T03:31:45;0.60;;;0.60;;
59856;SDS011;45733;52.668;6.860;2022-09-25T03:34:13;0.60;;;0.60;;
59856;SDS011;45733;52.668;6.860;2022-09-25T03:36:40;0.60;;;0.60;;
59856;SDS011;45733;52.668;6.860;2022-09-25T03:39:06;0.60;;;0.60;;
59856;SDS011;45733;52.668;6.860;2022-09-25T03:41:35;0.60;;;0.60;;
59856;SDS011;45733;52.668;6.860;2022-09-25T03:44:01;0.60;;;0.60;;
59856;SDS011;45733;52.668;6.860;2022-09-25T03:46:29;0.60;;;0.60;;
59856;SDS011;45733;52.668;6.860;2022-09-25T03:48:59;0.60;;;0.60;;
59856;SDS011;45733;52.668;6.860;2022-09-25T03:51:26;0.60;;;0.60;;
59856;SDS011;45733;52.668;6.860;2022-09-25T03:53:54;0.50;;;0.50;;
59856;SDS011;45733;52.668;6.860;2022-09-25T03:56:22;0.60;;;0.60;;
59856;SDS011;45733;52.668;6.860;2022-09-25T03:58:51;0.60;;;0.60;;
59856;SDS011;45733;52.668;6.860;2022-09-25T04:01:18;0.60;;;0.60;;
59856;SDS011;45733;52.668;6.860;2022-09-25T04:03:45;0.50;;;0.50;;
59856;SDS011;45733;52.668;6.860;2022-09-25T04:06:16;0.52;;;0.52;;
59856;SDS011;45733;52.668;6.860;2022-09-25T04:08:48;0.60;;;0.60;;
59856;SDS011;45733;52.668;6.860;2022-09-25T04:11:14;0.60;;;0.60;;
59856;SDS011;45733;52.668;6.860;2022-09-25T04:13:41;0.60;;;0.60;;
59856;SDS011;45733;52.668;6.860;2022-09-25T04:16:12;0.60;;;0.60;;
59856;SDS011;45733;52.668;6.860;2022-09-25T04:18:41;0.60;;;0.60;;
59856;SDS011;45733;52.668;6.860;2022-09-25T04:21:08;0.60;;;0.60;;
59856;SDS011;45733;52.668;6.860;2022-09-25T04:23:35;0.60;;;0.60;;
59856;SDS011;45733;52.668;6.860;2022-09-25T04:26:05;0.60;;;0.60;;
59856;SDS011;45733;52.668;6.860;2022-09-25T04:28:31;0.60;;;0.60;;
59856;SDS011;45733;52.668;6.860;2022-09-25T04:30:58;0.60;;;0.60;;
59856;SDS011;45733;52.668;6.860;2022-09-25T04:33:24;0.60;;;0.60;;
59856;SDS011;45733;52.668;6.860;2022-09-25T04:36:09;0.60;;;0.60;;
59856;SDS011;45733;52.668;6.860;2022-09-25T04:38:34;0.60;;;0.60;;
59856;SDS011;45733;52.668;6.860;2022-09-25T04:41:01;0.70;;;0.70;;
59856;SDS011;45733;52.668;6.860;2022-09-25T04:43:28;0.60;;;0.60;;
59856;SDS011;45733;52.668;6.860;2022-09-25T04:45:59;0.60;;;0.60;;
59856;SDS011;45733;52.668;6.860;2022-09-25T04:48:25;0.60;;;0.60;;
59856;SDS011;45733;52.668;6.860;2022-09-25T04:50:51;0.60;;;0.60;;
59856;SDS011;45733;52.668;6.860;2022-09-25T04:53:17;0.60;;;0.60;;
59856;SDS011;45733;52.668;6.860;2022-09-25T04:55:43;0.60;;;0.60;;
59856;SDS011;45733;52.668;6.860;2022-09-25T04:58:10;0.60;;;0.60;;
59856;SDS011;45733;52.668;6.860;2022-09-25T05:00:36;0.60;;;0.60;;
59856;SDS011;45733;52.668;6.860;2022-09-25T05:03:02;0.60;;;0.60;;
59856;SDS011;45733;52.668;6.860;2022-09-25T05:05:29;0.60;;;0.60;;
59856;SDS011;45733;52.668;6.860;2022-09-25T05:07:56;0.60;;;0.60;;
59856;SDS011;45733;52.668;6.860;2022-09-25T05:10:24;0.60;;;0.60;;
59856;SDS011;45733;52.668;6.860;2022-09-25T05:13:02;0.60;;;0.60;;
59856;SDS011;45733;52.668;6.860;2022-09-25T05:15:29;0.60;;;0.60;;
59856;SDS011;45733;52.668;6.860;2022-09-25T05:18:00;0.60;;;0.60;;
59856;SDS011;45733;52.668;6.860;2022-09-25T05:20:36;0.60;;;0.60;;
59856;SDS011;45733;52.668;6.860;2022-09-25T05:23:03;0.60;;;0.60;;
59856;SDS011;45733;52.668;6.860;2022-09-25T05:25:29;0.70;;;0.70;;
59856;SDS011;45733;52.668;6.860;2022-09-25T05:27:56;0.60;;;0.60;;
59856;SDS011;45733;52.668;6.860;2022-09-25T05:30:24;0.60;;;0.60;;
59856;SDS011;45733;52.668;6.860;2022-09-25T05:32:52;0.60;;;0.60;;
59856;SDS011;45733;52.668;6.860;2022-09-25T05:35:19;0.60;;;0.60;;
59856;SDS011;45733;52.668;6.860;2022-09-25T05:37:46;0.70;;;0.70;;
59856;SDS011;45733;52.668;6.860;2022-09-25T05:40:12;0.60;;;0.60;;
59856;SDS011;45733;52.668;6.860;2022-09-25T05:42:42;0.60;;;0.60;;
59856;SDS011;45733;52.668;6.860;2022-09-25T05:45:12;0.60;;;0.60;;
59856;SDS011;45733;52.668;6.860;2022-09-25T05:47:39;0.60;;;0.60;;
59856;SDS011;45733;52.668;6.860;2022-09-25T05:50:06;0.60;;;0.60;;
59856;SDS011;45733;52.668;6.860;2022-09-25T05:52:33;0.57;;;0.57;;
59856;SDS011;45733;52.668;6.860;2022-09-25T05:55:00;0.60;;;0.60;;
59856;SDS011;45733;52.668;6.860;2022-09-25T05:57:29;0.60;;;0.60;;
59856;SDS011;45733;52.668;6.860;2022-09-25T05:59:56;0.60;;;0.60;;
59856;SDS011;45733;52.668;6.860;2022-09-25T06:02:23;0.60;;;0.60;;
59856;SDS011;45733;52.668;6.860;2022-09-25T06:04:49;0.60;;;0.60;;
59856;SDS011;45733;52.668;6.860;2022-09-25T06:07:15;0.60;;;0.60;;
59856;SDS011;45733;52.668;6.860;2022-09-25T06:09:41;0.60;;;0.60;;
59856;SDS011;45733;52.668;6.860;2022-09-25T06:12:07;0.60;;;0.60;;
59856;SDS011;45733;52.668;6.860;2022-09-25T06:14:32;0.60;;;0.60;;
59856;SDS011;45733;52.668;6.860;2022-09-25T06:17:01;0.60;;;0.60;;
59856;SDS011;45733;52.668;6.860;2022-09-25T06:19:27;0.60;;;0.60;;
59856;SDS011;45733;52.668;6.860;2022-09-25T06:21:54;0.60;;;0.60;;
59856;SDS011;45733;52.668;6.860;2022-09-25T06:24:21;0.60;;;0.60;;
59856;SDS011;45733;52.668;6.860;2022-09-25T06:26:47;0.57;;;0.57;;
59856;SDS011;45733;52.668;6.860;2022-09-25T06:29:13;0.60;;;0.60;;
59856;SDS011;45733;52.668;6.860;2022-09-25T06:31:39;0.60;;;0.60;;
59856;SDS011;45733;52.668;6.860;2022-09-25T06:34:07;0.60;;;0.60;;
59856;SDS011;45733;52.668;6.860;2022-09-25T06:36:33;0.60;;;0.60;;
59856;SDS011;45733;52.668;6.860;2022-09-25T06:38:59;0.60;;;0.60;;
59856;SDS011;45733;52.668;6.860;2022-09-25T06:41:25;0.60;;;0.60;;
59856;SDS011;45733;52.668;6.860;2022-09-25T06:43:51;0.60;;;0.60;;
59856;SDS011;45733;52.668;6.860;2022-09-25T06:46:17;0.60;;;0.60;;
59856;SDS011;45733;52.668;6.860;2022-09-25T06:48:49;0.50;;;0.50;;
59856;SDS011;45733;52.668;6.860;2022-09-25T06:51:18;0.60;;;0.60;;
59856;SDS011;45733;52.668;6.860;2022-09-25T06:53:52;0.60;;;0.60;;
59856;SDS011;45733;52.668;6.860;2022-09-25T06:56:18;0.50;;;0.50;;
59856;SDS011;45733;52.668;6.860;2022-09-25T06:58:45;0.60;;;0.60;;
59856;SDS011;45733;52.668;6.860;2022-09-25T07:01:11;0.50;;;0.50;;
59856;SDS011;45733;52.668;6.860;2022-09-25T07:03:37;0.50;;;0.50;;
59856;SDS011;45733;52.668;6.860;2022-09-25T07:06:11;0.50;;;0.50;;
59856;SDS011;45733;52.668;6.860;2022-09-25T07:08:37;0.50;;;0.50;;
59856;SDS011;45733;52.668;6.860;2022-09-25T07:11:03;0.50;;;0.50;;
59856;SDS011;45733;52.668;6.860;2022-09-25T07:13:30;0.50;;;0.50;;
59856;SDS011;45733;52.668;6.860;2022-09-25T07:16:03;0.50;;;0.50;;
59856;SDS011;45733;52.668;6.860;2022-09-25T07:18:30;0.50;;;0.50;;
59856;SDS011;45733;52.668;6.860;2022-09-25T07:21:00;0.50;;;0.50;;
59856;SDS011;45733;52.668;6.860;2022-09-25T07:23:28;0.50;;;0.50;;
59856;SDS011;45733;52.668;6.860;2022-09-25T07:25:56;0.50;;;0.50;;
59856;SDS011;45733;52.668;6.860;2022-09-25T07:28:29;0.50;;;0.50;;
59856;SDS011;45733;52.668;6.860;2022-09-25T07:30:55;0.50;;;0.50;;
59856;SDS011;45733;52.668;6.860;2022-09-25T07:33:21;0.50;;;0.50;;
59856;SDS011;45733;52.668;6.860;2022-09-25T07:35:49;0.50;;;0.50;;
59856;SDS011;45733;52.668;6.860;2022-09-25T07:38:18;0.50;;;0.50;;
59856;SDS011;45733;52.668;6.860;2022-09-25T07:40:45;0.50;;;0.50;;
59856;SDS011;45733;52.668;6.860;2022-09-25T07:43:11;0.50;;;0.50;;
59856;SDS011;45733;52.668;6.860;2022-09-25T07:45:37;0.50;;;0.50;;
59856;SDS011;45733;52.668;6.860;2022-09-25T07:48:03;0.57;;;0.57;;
59856;SDS011;45733;52.668;6.860;2022-09-25T07:50:30;0.50;;;0.50;;
59856;SDS011;45733;52.668;6.860;2022-09-25T07:52:57;0.50;;;0.50;;
59856;SDS011;45733;52.668;6.860;2022-09-25T07:55:23;0.50;;;0.50;;
59856;SDS011;45733;52.668;6.860;2022-09-25T07:57:52;0.50;;;0.50;;
59856;SDS011;45733;52.668;6.860;2022-09-25T08:00:20;0.50;;;0.50;;
59856;SDS011;45733;52.668;6.860;2022-09-25T08:02:53;0.50;;;0.50;;
59856;SDS011;45733;52.668;6.860;2022-09-25T08:05:21;0.50;;;0.50;;
59856;SDS011;45733;52.668;6.860;2022-09-25T08:07:47;0.50;;;0.50;;
59856;SDS011;45733;52.668;6.860;2022-09-25T08:10:13;0.50;;;0.50;;
59856;SDS011;45733;52.668;6.860;2022-09-25T08:12:38;0.50;;;0.50;;
59856;SDS011;45733;52.668;6.860;2022-09-25T08:15:05;0.50;;;0.50;;
59856;SDS011;45733;52.668;6.860;2022-09-25T08:17:31;0.50;;;0.50;;
59856;SDS011;45733;52.668;6.860;2022-09-25T08:19:57;0.50;;;0.50;;
59856;SDS011;45733;52.668;6.860;2022-09-25T08:22:23;0.50;;;0.50;;
59856;SDS011;45733;52.668;6.860;2022-09-25T08:24:49;0.50;;;0.50;;
59856;SDS011;45733;52.668;6.860;2022-09-25T08:27:15;0.50;;;0.50;;
59856;SDS011;45733;52.668;6.860;2022-09-25T08:30:00;0.50;;;0.50;;
59856;SDS011;45733;52.668;6.860;2022-09-25T08:32:26;0.50;;;0.50;;
59856;SDS011;45733;52.668;6.860;2022-09-25T08:34:52;0.50;;;0.50;;
59856;SDS011;45733;52.668;6.860;2022-09-25T08:37:19;0.50;;;0.50;;
59856;SDS011;45733;52.668;6.860;2022-09-25T08:39:45;0.40;;;0.40;;
59856;SDS011;45733;52.668;6.860;2022-09-25T08:42:15;0.45;;;0.45;;
59856;SDS011;45733;52.668;6.860;2022-09-25T08:44:46;0.40;;;0.40;;
59856;SDS011;45733;52.668;6.860;2022-09-25T08:47:39;0.50;;;0.50;;
59856;SDS011;45733;52.668;6.860;2022-09-25T08:50:25;0.43;;;0.43;;
59856;SDS011;45733;52.668;6.860;2022-09-25T08:53:08;0.50;;;0.50;;
59856;SDS011;45733;52.668;6.860;2022-09-25T08:55:48;0.50;;;0.50;;
59856;SDS011;45733;52.668;6.860;2022-09-25T08:58:35;0.50;;;0.50;;
59856;SDS011;45733;52.668;6.860;2022-09-25T09:01:14;0.50;;;0.50;;
59856;SDS011;45733;52.668;6.860;2022-09-25T09:06:38;0.40;;;0.40;;
59856;SDS011;45733;52.668;6.860;2022-09-25T09:12:02;0.40;;;0.40;;
59856;SDS011;45733;52.668;6.860;2022-09-25T09:14:43;0.40;;;0.40;;
59856;SDS011;45733;52.668;6.860;2022-09-25T09:17:25;0.50;;;0.50;;
59856;SDS011;45733;52.668;6.860;2022-09-25T09:19:58;0.43;;;0.43;;
59856;SDS011;45733;52.668;6.860;2022-09-25T09:22:32;0.40;;;0.40;;
59856;SDS011;45733;52.668;6.860;2022-09-25T09:39:59;0.40;;;0.40;;
59856;SDS011;45733;52.668;6.860;2022-09-25T09:51:02;0.40;;;0.40;;
59856;SDS011;45733;52.668;6.860;2022-09-25T09:56:11;0.40;;;0.40;;
59856;SDS011;45733;52.668;6.860;2022-09-25T10:01:14;0.40;;;0.40;;
59856;SDS011;45733;52.668;6.860;2022-09-25T10:03:43;0.40;;;0.40;;
59856;SDS011;45733;52.668;6.860;2022-09-25T10:06:13;0.40;;;0.40;;
59856;SDS011;45733;52.668;6.860;2022-09-25T10:08:40;0.40;;;0.40;;
59856;SDS011;45733;52.668;6.860;2022-09-25T10:11:12;0.40;;;0.40;;
59856;SDS011;45733;52.668;6.860;2022-09-25T10:13:43;0.40;;;0.40;;
59856;SDS011;45733;52.668;6.860;2022-09-25T10:16:20;0.40;;;0.40;;
59856;SDS011;45733;52.668;6.860;2022-09-25T10:21:20;0.40;;;0.40;;
59856;SDS011;45733;52.668;6.860;2022-09-25T10:23:52;0.40;;;0.40;;
59856;SDS011;45733;52.668;6.860;2022-09-25T10:26:27;0.40;;;0.40;;
59856;SDS011;45733;52.668;6.860;2022-09-25T10:29:09;0.40;;;0.40;;
59856;SDS011;45733;52.668;6.860;2022-09-25T10:31:46;0.40;;;0.40;;
59856;SDS011;45733;52.668;6.860;2022-09-25T10:34:20;0.40;;;0.40;;
59856;SDS011;45733;52.668;6.860;2022-09-25T10:36:49;0.40;;;0.40;;
59856;SDS011;45733;52.668;6.860;2022-09-25T10:39:35;0.40;;;0.40;;
59856;SDS011;45733;52.668;6.860;2022-09-25T10:42:35;0.40;;;0.40;;
59856;SDS011;45733;52.668;6.860;2022-09-25T10:45:05;0.40;;;0.40;;
59856;SDS011;45733;52.668;6.860;2022-09-25T10:48:00;0.40;;;0.40;;
59856;SDS011;45733;52.668;6.860;2022-09-25T10:51:04;0.40;;;0.40;;
59856;SDS011;45733;52.668;6.860;2022-09-25T10:53:32;0.40;;;0.40;;
59856;SDS011;45733;52.668;6.860;2022-09-25T10:56:08;0.40;;;0.40;;
59856;SDS011;45733;52.668;6.860;2022-09-25T10:58:56;0.50;;;0.50;;
59856;SDS011;45733;52.668;6.860;2022-09-25T11:01:33;0.50;;;0.50;;
59856;SDS011;45733;52.668;6.860;2022-09-25T11:04:02;0.50;;;0.50;;
59856;SDS011;45733;52.668;6.860;2022-09-25T11:06:52;0.43;;;0.43;;
59856;SDS011;45733;52.668;6.860;2022-09-25T11:09:23;0.50;;;0.50;;
59856;SDS011;45733;52.668;6.860;2022-09-25T11:11:51;0.50;;;0.50;;
59856;SDS011;45733;52.668;6.860;2022-09-25T11:14:36;0.47;;;0.47;;
59856;SDS011;45733;52.668;6.860;2022-09-25T11:17:05;0.40;;;0.40;;
59856;SDS011;45733;52.668;6.860;2022-09-25T11:19:53;0.50;;;0.50;;
59856;SDS011;45733;52.668;6.860;2022-09-25T11:31:34;0.40;;;0.40;;
59856;SDS011;45733;52.668;6.860;2022-09-25T11:34:39;0.47;;;0.47;;
59856;SDS011;45733;52.668;6.860;2022-09-25T11:37:30;0.40;;;0.40;;
59856;SDS011;45733;52.668;6.860;2022-09-25T11:43:15;0.50;;;0.50;;
59856;SDS011;45733;52.668;6.860;2022-09-25T11:49:11;0.50;;;0.50;;
59856;SDS011;45733;52.668;6.860;2022-09-25T12:10:31;0.40;;;0.40;;
59856;SDS011;45733;52.668;6.860;2022-09-25T12:13:58;0.40;;;0.40;;
59856;SDS011;45733;52.668;6.860;2022-09-25T12:16:12;0.40;;;0.40;;
59856;SDS011;45733;52.668;6.860;2022-09-25T12:22:18;0.40;;;0.40;;
59856;SDS011;45733;52.668;6.860;2022-09-25T12:30:21;0.40;;;0.40;;
59856;SDS011;45733;52.668;6.860;2022-09-25T12:33:01;0.40;;;0.40;;
59856;SDS011;45733;52.668;6.860;2022-09-25T12:36:44;0.40;;;0.40;;
59856;SDS011;45733;52.668;6.860;2022-09-25T12:39:46;0.40;;;0.40;;
59856;SDS011;45733;52.668;6.860;2022-09-25T12:42:21;0.40;;;0.40;;
59856;SDS011;45733;52.668;6.860;2022-09-25T12:45:17;0.40;;;0.40;;
59856;SDS011;45733;52.668;6.860;2022-09-25T12:50:43;0.40;;;0.40;;
59856;SDS011;45733;52.668;6.860;2022-09-25T12:53:23;0.40;;;0.40;;
59856;SDS011;45733;52.668;6.860;2022-09-25T12:56:02;0.40;;;0.40;;
59856;SDS011;45733;52.668;6.860;2022-09-25T13:07:16;0.40;;;0.40;;
59856;SDS011;45733;52.668;6.860;2022-09-25T13:09:51;0.50;;;0.50;;
59856;SDS011;45733;52.668;6.860;2022-09-25T13:12:31;0.43;;;0.43;;
59856;SDS011;45733;52.668;6.860;2022-09-25T13:17:35;0.50;;;0.50;;
59856;SDS011;45733;52.668;6.860;2022-09-25T13:23:26;0.50;;;0.50;;
59856;SDS011;45733;52.668;6.860;2022-09-25T13:26:07;0.43;;;0.43;;
59856;SDS011;45733;52.668;6.860;2022-09-25T13:28:37;0.50;;;0.50;;
59856;SDS011;45733;52.668;6.860;2022-09-25T13:31:19;0.40;;;0.40;;
59856;SDS011;45733;52.668;6.860;2022-09-25T13:33:49;0.40;;;0.40;;
59856;SDS011;45733;52.668;6.860;2022-09-25T13:38:48;0.40;;;0.40;;
59856;SDS011;45733;52.668;6.860;2022-09-25T13:41:45;0.40;;;0.40;;
59856;SDS011;45733;52.668;6.860;2022-09-25T14:00:24;0.50;;;0.50;;
59856;SDS011;45733;52.668;6.860;2022-09-25T14:02:53;0.50;;;0.50;;
59856;SDS011;45733;52.668;6.860;2022-09-25T14:05:34;0.45;;;0.45;;
59856;SDS011;45733;52.668;6.860;2022-09-25T14:10:44;0.50;;;0.50;;
59856;SDS011;45733;52.668;6.860;2022-09-25T14:13:13;0.40;;;0.40;;
59856;SDS011;45733;52.668;6.860;2022-09-25T14:15:41;0.40;;;0.40;;
59856;SDS011;45733;52.668;6.860;2022-09-25T14:18:14;0.50;;;0.50;;
59856;SDS011;45733;52.668;6.860;2022-09-25T14:21:03;0.50;;;0.50;;
59856;SDS011;45733;52.668;6.860;2022-09-25T14:23:45;0.50;;;0.50;;
59856;SDS011;45733;52.668;6.860;2022-09-25T14:26:17;0.50;;;0.50;;
59856;SDS011;45733;52.668;6.860;2022-09-25T14:28:47;0.50;;;0.50;;
59856;SDS011;45733;52.668;6.860;2022-09-25T14:39:56;0.40;;;0.40;;
59856;SDS011;45733;52.668;6.860;2022-09-25T14:45:55;0.47;;;0.47;;
59856;SDS011;45733;52.668;6.860;2022-09-25T14:48:48;0.40;;;0.40;;
59856;SDS011;45733;52.668;6.860;2022-09-25T14:51:37;0.50;;;0.50;;
59856;SDS011;45733;52.668;6.860;2022-09-25T14:54:05;0.50;;;0.50;;
59856;SDS011;45733;52.668;6.860;2022-09-25T14:56:33;0.50;;;0.50;;
59856;SDS011;45733;52.668;6.860;2022-09-25T14:59:04;0.50;;;0.50;;
59856;SDS011;45733;52.668;6.860;2022-09-25T15:01:34;0.50;;;0.50;;
59856;SDS011;45733;52.668;6.860;2022-09-25T15:04:07;0.50;;;0.50;;
59856;SDS011;45733;52.668;6.860;2022-09-25T15:06:34;0.50;;;0.50;;
59856;SDS011;45733;52.668;6.860;2022-09-25T15:11:52;0.50;;;0.50;;
59856;SDS011;45733;52.668;6.860;2022-09-25T15:14:19;0.50;;;0.50;;
59856;SDS011;45733;52.668;6.860;2022-09-25T15:16:45;0.40;;;0.40;;
59856;SDS011;45733;52.668;6.860;2022-09-25T15:19:32;0.50;;;0.50;;
59856;SDS011;45733;52.668;6.860;2022-09-25T15:22:06;0.50;;;0.50;;
59856;SDS011;45733;52.668;6.860;2022-09-25T15:24:35;0.50;;;0.50;;
59856;SDS011;45733;52.668;6.860;2022-09-25T15:27:03;0.40;;;0.40;;
59856;SDS011;45733;52.668;6.860;2022-09-25T15:29:37;0.50;;;0.50;;
59856;SDS011;45733;52.668;6.860;2022-09-25T15:32:14;0.40;;;0.40;;
59856;SDS011;45733;52.668;6.860;2022-09-25T15:34:46;0.50;;;0.50;;
59856;SDS011;45733;52.668;6.860;2022-09-25T15:39:46;0.47;;;0.47;;
59856;SDS011;45733;52.668;6.860;2022-09-25T15:42:13;0.40;;;0.40;;
59856;SDS011;45733;52.668;6.860;2022-09-25T15:44:39;0.40;;;0.40;;
59856;SDS011;45733;52.668;6.860;2022-09-25T15:47:05;0.40;;;0.40;;
59856;SDS011;45733;52.668;6.860;2022-09-25T15:49:51;0.50;;;0.50;;
59856;SDS011;45733;52.668;6.860;2022-09-25T15:52:19;0.40;;;0.40;;
59856;SDS011;45733;52.668;6.860;2022-09-25T15:54:59;0.50;;;0.50;;
59856;SDS011;45733;52.668;6.860;2022-09-25T15:57:38;0.40;;;0.40;;
59856;SDS011;45733;52.668;6.860;2022-09-25T16:00:07;0.40;;;0.40;;
59856;SDS011;45733;52.668;6.860;2022-09-25T16:03:02;0.40;;;0.40;;
59856;SDS011;45733;52.668;6.860;2022-09-25T16:05:56;0.40;;;0.40;;
59856;SDS011;45733;52.668;6.860;2022-09-25T16:08:30;0.40;;;0.40;;
59856;SDS011;45733;52.668;6.860;2022-09-25T16:13:38;0.50;;;0.50;;
59856;SDS011;45733;52.668;6.860;2022-09-25T16:18:54;0.50;;;0.50;;
59856;SDS011;45733;52.668;6.860;2022-09-25T16:21:32;0.40;;;0.40;;
59856;SDS011;45733;52.668;6.860;2022-09-25T16:24:04;0.40;;;0.40;;
59856;SDS011;45733;52.668;6.860;2022-09-25T16:26:38;0.40;;;0.40;;
59856;SDS011;45733;52.668;6.860;2022-09-25T16:31:38;0.40;;;0.40;;
59856;SDS011;45733;52.668;6.860;2022-09-25T16:34:06;0.50;;;0.50;;
59856;SDS011;45733;52.668;6.860;2022-09-25T16:36:41;0.50;;;0.50;;
59856;SDS011;45733;52.668;6.860;2022-09-25T16:41:35;0.50;;;0.50;;
59856;SDS011;45733;52.668;6.860;2022-09-25T16:46:41;0.50;;;0.50;;
59856;SDS011;45733;52.668;6.860;2022-09-25T16:49:09;0.50;;;0.50;;
59856;SDS011;45733;52.668;6.860;2022-09-25T16:51:36;0.50;;;0.50;;
59856;SDS011;45733;52.668;6.860;2022-09-25T16:54:10;0.50;;;0.50;;
59856;SDS011;45733;52.668;6.860;2022-09-25T16:56:42;0.50;;;0.50;;
59856;SDS011;45733;52.668;6.860;2022-09-25T16:59:19;0.50;;;0.50;;
59856;SDS011;45733;52.668;6.860;2022-09-25T17:01:47;0.50;;;0.50;;
59856;SDS011;45733;52.668;6.860;2022-09-25T17:04:18;0.40;;;0.40;;
59856;SDS011;45733;52.668;6.860;2022-09-25T17:06:46;0.50;;;0.50;;
59856;SDS011;45733;52.668;6.860;2022-09-25T17:09:12;0.40;;;0.40;;
59856;SDS011;45733;52.668;6.860;2022-09-25T17:11:40;0.40;;;0.40;;
59856;SDS011;45733;52.668;6.860;2022-09-25T17:14:22;0.40;;;0.40;;
59856;SDS011;45733;52.668;6.860;2022-09-25T17:16:49;0.50;;;0.50;;
59856;SDS011;45733;52.668;6.860;2022-09-25T17:19:16;0.40;;;0.40;;
59856;SDS011;45733;52.668;6.860;2022-09-25T17:21:47;0.40;;;0.40;;
59856;SDS011;45733;52.668;6.860;2022-09-25T17:24:18;0.40;;;0.40;;
59856;SDS011;45733;52.668;6.860;2022-09-25T17:26:47;0.50;;;0.50;;
59856;SDS011;45733;52.668;6.860;2022-09-25T17:29:14;0.50;;;0.50;;
59856;SDS011;45733;52.668;6.860;2022-09-25T17:31:40;0.50;;;0.50;;
59856;SDS011;45733;52.668;6.860;2022-09-25T17:34:16;0.50;;;0.50;;
59856;SDS011;45733;52.668;6.860;2022-09-25T17:36:43;0.40;;;0.40;;
59856;SDS011;45733;52.668;6.860;2022-09-25T17:39:10;0.50;;;0.50;;
59856;SDS011;45733;52.668;6.860;2022-09-25T17:41:36;0.50;;;0.50;;
59856;SDS011;45733;52.668;6.860;2022-09-25T17:44:03;0.50;;;0.50;;
59856;SDS011;45733;52.668;6.860;2022-09-25T17:46:29;0.50;;;0.50;;
59856;SDS011;45733;52.668;6.860;2022-09-25T17:48:58;0.40;;;0.40;;
59856;SDS011;45733;52.668;6.860;2022-09-25T17:51:24;0.47;;;0.47;;
59856;SDS011;45733;52.668;6.860;2022-09-25T17:53:52;0.43;;;0.43;;
59856;SDS011;45733;52.668;6.860;2022-09-25T17:56:18;0.50;;;0.50;;
59856;SDS011;45733;52.668;6.860;2022-09-25T17:58:44;0.50;;;0.50;;
59856;SDS011;45733;52.668;6.860;2022-09-25T18:01:15;0.50;;;0.50;;
59856;SDS011;45733;52.668;6.860;2022-09-25T18:03:49;0.47;;;0.47;;
59856;SDS011;45733;52.668;6.860;2022-09-25T18:06:16;0.40;;;0.40;;
59856;SDS011;45733;52.668;6.860;2022-09-25T18:08:46;0.50;;;0.50;;
59856;SDS011;45733;52.668;6.860;2022-09-25T18:11:13;0.50;;;0.50;;
59856;SDS011;45733;52.668;6.860;2022-09-25T18:13:40;0.50;;;0.50;;
59856;SDS011;45733;52.668;6.860;2022-09-25T18:16:08;0.40;;;0.40;;
59856;SDS011;45733;52.668;6.860;2022-09-25T18:18:49;0.50;;;0.50;;
59856;SDS011;45733;52.668;6.860;2022-09-25T18:21:33;0.50;;;0.50;;
59856;SDS011;45733;52.668;6.860;2022-09-25T18:26:43;0.50;;;0.50;;